< < Back
Terminal Aerodrome Forecast


Current Version              Previous Versions:   1  2  3  4  5  6  7  8  9  

Terminal Aerodrome Forecast

387
FTUS42 KFFC 311120
TAFMCN
TAF
KMCN 311120Z 3112/0112 05005KT P6SM OVC005
     FM311500 03005KT P6SM SCT008 BKN015
     FM311700 03005KT P6SM BKN025
     FM311900 04005KT P6SM SCT040
     FM010000 00000KT P6SM SCT045 SCT250
     FM010700 00000KT 3SM BR SCT002 SCT250=



Latest METAR

170
SAUS80 KWBC 010200 RRD
MTRMCN
METAR KMCN 010153Z AUTO 00000KT 10SM CLR 24/22 A3009 RMK AO2 SLP185
T02390217 TSNO


USA.gov is the U.S. government's official web portal to all federal, state and local government web resources and services.